sensor_id;sensor_type;location;lat;lon;timestamp;temperature;humidity
21035;DHT22;10676;50.848;3.272;2023-06-22T00:00:52;17.90;99.90
21035;DHT22;10676;50.848;3.272;2023-06-22T00:03:19;17.80;99.90
21035;DHT22;10676;50.848;3.272;2023-06-22T00:05:48;17.70;99.90
21035;DHT22;10676;50.848;3.272;2023-06-22T00:08:14;17.60;99.90
21035;DHT22;10676;50.848;3.272;2023-06-22T00:10:40;17.60;99.90
21035;DHT22;10676;50.848;3.272;2023-06-22T00:13:07;17.50;99.90
21035;DHT22;10676;50.848;3.272;2023-06-22T00:15:33;17.50;99.90
21035;DHT22;10676;50.848;3.272;2023-06-22T00:17:59;17.60;99.90
21035;DHT22;10676;50.848;3.272;2023-06-22T00:20:26;17.60;99.90
21035;DHT22;10676;50.848;3.272;2023-06-22T00:22:54;17.60;99.90
21035;DHT22;10676;50.848;3.272;2023-06-22T00:25:19;17.60;99.90
21035;DHT22;10676;50.848;3.272;2023-06-22T00:27:45;17.60;99.90
21035;DHT22;10676;50.848;3.272;2023-06-22T00:30:11;17.60;99.90
21035;DHT22;10676;50.848;3.272;2023-06-22T00:32:36;17.60;99.90
21035;DHT22;10676;50.848;3.272;2023-06-22T00:35:02;17.50;99.90
21035;DHT22;10676;50.848;3.272;2023-06-22T00:37:28;17.50;99.90
21035;DHT22;10676;50.848;3.272;2023-06-22T00:39:55;17.40;99.90
21035;DHT22;10676;50.848;3.272;2023-06-22T00:42:21;17.30;99.90
21035;DHT22;10676;50.848;3.272;2023-06-22T00:44:47;17.30;99.90
21035;DHT22;10676;50.848;3.272;2023-06-22T00:47:17;17.20;99.90
21035;DHT22;10676;50.848;3.272;2023-06-22T00:49:44;17.10;99.90
21035;DHT22;10676;50.848;3.272;2023-06-22T00:52:11;17.10;99.90
21035;DHT22;10676;50.848;3.272;2023-06-22T00:54:40;17.10;99.90
21035;DHT22;10676;50.848;3.272;2023-06-22T00:57:13;17.10;99.90
21035;DHT22;10676;50.848;3.272;2023-06-22T00:59:42;17.00;99.90
21035;DHT22;10676;50.848;3.272;2023-06-22T01:02:08;17.00;99.90
21035;DHT22;10676;50.848;3.272;2023-06-22T01:04:35;17.00;99.90
21035;DHT22;10676;50.848;3.272;2023-06-22T01:07:17;17.00;99.90
21035;DHT22;10676;50.848;3.272;2023-06-22T01:10:49;16.90;99.90
21035;DHT22;10676;50.848;3.272;2023-06-22T01:12:59;17.00;99.90
21035;DHT22;10676;50.848;3.272;2023-06-22T01:18:13;17.00;99.90
21035;DHT22;10676;50.848;3.272;2023-06-22T01:20:39;16.90;99.90
21035;DHT22;10676;50.848;3.272;2023-06-22T01:23:20;16.90;99.90
21035;DHT22;10676;50.848;3.272;2023-06-22T01:28:45;16.90;99.90
21035;DHT22;10676;50.848;3.272;2023-06-22T01:31:14;16.80;99.90
21035;DHT22;10676;50.848;3.272;2023-06-22T01:33:42;16.80;99.90
21035;DHT22;10676;50.848;3.272;2023-06-22T01:36:09;16.80;99.90
21035;DHT22;10676;50.848;3.272;2023-06-22T01:38:36;16.80;99.90
21035;DHT22;10676;50.848;3.272;2023-06-22T01:41:03;16.70;99.90
21035;DHT22;10676;50.848;3.272;2023-06-22T01:43:29;16.70;99.90
21035;DHT22;10676;50.848;3.272;2023-06-22T01:45:56;16.70;99.90
21035;DHT22;10676;50.848;3.272;2023-06-22T01:48:23;16.60;99.90
21035;DHT22;10676;50.848;3.272;2023-06-22T01:50:49;16.60;99.90
21035;DHT22;10676;50.848;3.272;2023-06-22T01:53:15;16.60;99.90
21035;DHT22;10676;50.848;3.272;2023-06-22T01:55:40;16.60;99.90
21035;DHT22;10676;50.848;3.272;2023-06-22T01:58:06;16.60;99.90
21035;DHT22;10676;50.848;3.272;2023-06-22T02:00:34;16.60;99.90
21035;DHT22;10676;50.848;3.272;2023-06-22T02:03:11;16.60;99.90
21035;DHT22;10676;50.848;3.272;2023-06-22T02:06:08;16.50;99.90
21035;DHT22;10676;50.848;3.272;2023-06-22T02:08:40;16.50;99.90
21035;DHT22;10676;50.848;3.272;2023-06-22T02:11:08;16.40;99.90
21035;DHT22;10676;50.848;3.272;2023-06-22T02:13:36;16.40;99.90
21035;DHT22;10676;50.848;3.272;2023-06-22T02:16:03;16.30;99.90
21035;DHT22;10676;50.848;3.272;2023-06-22T02:18:29;16.20;99.90
21035;DHT22;10676;50.848;3.272;2023-06-22T02:20:55;16.30;99.90
21035;DHT22;10676;50.848;3.272;2023-06-22T02:23:20;16.20;99.90
21035;DHT22;10676;50.848;3.272;2023-06-22T02:25:46;16.30;99.90
21035;DHT22;10676;50.848;3.272;2023-06-22T02:28:11;16.20;99.90
21035;DHT22;10676;50.848;3.272;2023-06-22T02:30:37;16.20;99.90
21035;DHT22;10676;50.848;3.272;2023-06-22T02:33:03;16.30;99.90
21035;DHT22;10676;50.848;3.272;2023-06-22T02:35:29;16.30;99.90
21035;DHT22;10676;50.848;3.272;2023-06-22T02:37:58;16.30;99.90
21035;DHT22;10676;50.848;3.272;2023-06-22T02:40:25;16.30;99.90
21035;DHT22;10676;50.848;3.272;2023-06-22T02:42:50;16.30;99.90
21035;DHT22;10676;50.848;3.272;2023-06-22T02:45:16;16.40;99.90
21035;DHT22;10676;50.848;3.272;2023-06-22T02:47:42;16.40;99.90
21035;DHT22;10676;50.848;3.272;2023-06-22T02:50:07;16.40;99.90
21035;DHT22;10676;50.848;3.272;2023-06-22T02:52:33;16.40;99.90
21035;DHT22;10676;50.848;3.272;2023-06-22T02:54:59;16.40;99.90
21035;DHT22;10676;50.848;3.272;2023-06-22T02:57:25;16.40;99.90
21035;DHT22;10676;50.848;3.272;2023-06-22T02:59:50;16.40;99.90
21035;DHT22;10676;50.848;3.272;2023-06-22T03:02:16;16.40;99.90
21035;DHT22;10676;50.848;3.272;2023-06-22T03:04:42;16.50;99.90
21035;DHT22;10676;50.848;3.272;2023-06-22T03:07:08;16.50;99.90
21035;DHT22;10676;50.848;3.272;2023-06-22T03:09:34;16.50;99.90
21035;DHT22;10676;50.848;3.272;2023-06-22T03:11:59;16.50;99.90
21035;DHT22;10676;50.848;3.272;2023-06-22T03:14:27;16.60;99.90
21035;DHT22;10676;50.848;3.272;2023-06-22T03:16:53;16.50;99.90
21035;DHT22;10676;50.848;3.272;2023-06-22T03:19:18;16.50;99.90
21035;DHT22;10676;50.848;3.272;2023-06-22T03:21:45;16.50;99.90
21035;DHT22;10676;50.848;3.272;2023-06-22T03:24:10;16.50;99.90
21035;DHT22;10676;50.848;3.272;2023-06-22T03:26:36;16.50;99.90
21035;DHT22;10676;50.848;3.272;2023-06-22T03:29:01;16.50;99.90
21035;DHT22;10676;50.848;3.272;2023-06-22T03:31:27;16.50;99.90
21035;DHT22;10676;50.848;3.272;2023-06-22T03:33:53;16.40;99.90
21035;DHT22;10676;50.848;3.272;2023-06-22T03:36:19;16.50;99.90
21035;DHT22;10676;50.848;3.272;2023-06-22T03:38:49;16.50;99.90
21035;DHT22;10676;50.848;3.272;2023-06-22T03:41:15;16.50;99.90
21035;DHT22;10676;50.848;3.272;2023-06-22T03:43:41;16.50;99.90
21035;DHT22;10676;50.848;3.272;2023-06-22T03:46:07;16.60;99.90
21035;DHT22;10676;50.848;3.272;2023-06-22T03:48:33;16.60;99.90
21035;DHT22;10676;50.848;3.272;2023-06-22T03:51:02;16.60;99.90
21035;DHT22;10676;50.848;3.272;2023-06-22T03:53:29;16.60;99.90
21035;DHT22;10676;50.848;3.272;2023-06-22T03:55:56;16.70;99.90
21035;DHT22;10676;50.848;3.272;2023-06-22T03:58:21;16.70;99.90
21035;DHT22;10676;50.848;3.272;2023-06-22T04:00:49;16.80;99.90
21035;DHT22;10676;50.848;3.272;2023-06-22T04:03:15;16.80;99.90
21035;DHT22;10676;50.848;3.272;2023-06-22T04:05:41;16.90;99.90
21035;DHT22;10676;50.848;3.272;2023-06-22T04:08:08;16.90;99.90
21035;DHT22;10676;50.848;3.272;2023-06-22T04:10:33;17.00;99.90
21035;DHT22;10676;50.848;3.272;2023-06-22T04:13:00;17.10;99.90
21035;DHT22;10676;50.848;3.272;2023-06-22T04:15:25;17.30;99.90
21035;DHT22;10676;50.848;3.272;2023-06-22T04:17:51;17.40;99.90
21035;DHT22;10676;50.848;3.272;2023-06-22T04:20:17;17.60;99.90
21035;DHT22;10676;50.848;3.272;2023-06-22T04:22:42;17.70;99.90
21035;DHT22;10676;50.848;3.272;2023-06-22T04:25:08;17.90;99.90
21035;DHT22;10676;50.848;3.272;2023-06-22T04:27:34;18.20;99.90
21035;DHT22;10676;50.848;3.272;2023-06-22T04:30:03;18.60;99.90
21035;DHT22;10676;50.848;3.272;2023-06-22T04:32:29;18.90;99.90
21035;DHT22;10676;50.848;3.272;2023-06-22T04:34:55;19.30;99.90
21035;DHT22;10676;50.848;3.272;2023-06-22T04:37:21;19.60;99.90
21035;DHT22;10676;50.848;3.272;2023-06-22T04:39:49;19.90;99.90
21035;DHT22;10676;50.848;3.272;2023-06-22T04:42:15;20.30;99.90
21035;DHT22;10676;50.848;3.272;2023-06-22T04:44:41;20.70;99.90
21035;DHT22;10676;50.848;3.272;2023-06-22T04:47:07;21.20;99.90
21035;DHT22;10676;50.848;3.272;2023-06-22T04:49:36;21.70;99.90
21035;DHT22;10676;50.848;3.272;2023-06-22T04:52:04;22.30;99.90
21035;DHT22;10676;50.848;3.272;2023-06-22T04:54:30;22.90;99.90
21035;DHT22;10676;50.848;3.272;2023-06-22T04:57:00;23.40;99.90
21035;DHT22;10676;50.848;3.272;2023-06-22T04:59:28;23.90;99.90
21035;DHT22;10676;50.848;3.272;2023-06-22T05:01:59;24.50;99.90
21035;DHT22;10676;50.848;3.272;2023-06-22T05:04:26;25.10;99.90
21035;DHT22;10676;50.848;3.272;2023-06-22T05:06:54;25.40;99.90
21035;DHT22;10676;50.848;3.272;2023-06-22T05:09:20;25.60;99.90
21035;DHT22;10676;50.848;3.272;2023-06-22T05:11:46;25.70;99.90
21035;DHT22;10676;50.848;3.272;2023-06-22T05:14:12;25.60;99.90
21035;DHT22;10676;50.848;3.272;2023-06-22T05:16:38;25.40;99.90
21035;DHT22;10676;50.848;3.272;2023-06-22T05:19:04;25.10;99.90
21035;DHT22;10676;50.848;3.272;2023-06-22T05:21:30;24.70;99.90
21035;DHT22;10676;50.848;3.272;2023-06-22T05:23:57;24.40;99.90
21035;DHT22;10676;50.848;3.272;2023-06-22T05:26:31;24.00;99.90
21035;DHT22;10676;50.848;3.272;2023-06-22T05:28:57;23.80;99.90
21035;DHT22;10676;50.848;3.272;2023-06-22T05:31:23;23.80;99.90
21035;DHT22;10676;50.848;3.272;2023-06-22T05:33:51;23.80;99.90
21035;DHT22;10676;50.848;3.272;2023-06-22T05:36:17;24.00;99.90
21035;DHT22;10676;50.848;3.272;2023-06-22T05:38:44;24.20;99.90
21035;DHT22;10676;50.848;3.272;2023-06-22T05:41:09;24.30;99.90
21035;DHT22;10676;50.848;3.272;2023-06-22T05:43:35;24.30;99.90
21035;DHT22;10676;50.848;3.272;2023-06-22T05:46:01;24.30;99.90
21035;DHT22;10676;50.848;3.272;2023-06-22T05:48:27;24.20;99.90
21035;DHT22;10676;50.848;3.272;2023-06-22T05:50:53;24.20;99.90
21035;DHT22;10676;50.848;3.272;2023-06-22T05:53:19;24.20;99.90
21035;DHT22;10676;50.848;3.272;2023-06-22T05:55:46;24.20;99.90
21035;DHT22;10676;50.848;3.272;2023-06-22T05:58:12;24.10;99.90
21035;DHT22;10676;50.848;3.272;2023-06-22T06:00:39;24.00;99.90
21035;DHT22;10676;50.848;3.272;2023-06-22T06:03:05;23.90;99.90
21035;DHT22;10676;50.848;3.272;2023-06-22T06:05:31;23.80;99.90
21035;DHT22;10676;50.848;3.272;2023-06-22T06:07:57;23.80;99.90
21035;DHT22;10676;50.848;3.272;2023-06-22T06:10:23;23.70;99.90
21035;DHT22;10676;50.848;3.272;2023-06-22T06:12:48;23.80;99.90
21035;DHT22;10676;50.848;3.272;2023-06-22T06:15:14;23.80;99.90
21035;DHT22;10676;50.848;3.272;2023-06-22T06:17:53;23.80;99.90
21035;DHT22;10676;50.848;3.272;2023-06-22T06:20:20;23.80;99.90
21035;DHT22;10676;50.848;3.272;2023-06-22T06:22:46;23.80;99.90
21035;DHT22;10676;50.848;3.272;2023-06-22T06:25:12;23.80;99.90
21035;DHT22;10676;50.848;3.272;2023-06-22T06:27:48;23.80;99.90
21035;DHT22;10676;50.848;3.272;2023-06-22T06:30:16;23.80;99.90
21035;DHT22;10676;50.848;3.272;2023-06-22T06:32:43;23.90;99.90
21035;DHT22;10676;50.848;3.272;2023-06-22T06:35:11;24.00;99.90
21035;DHT22;10676;50.848;3.272;2023-06-22T06:37:39;24.20;99.90
21035;DHT22;10676;50.848;3.272;2023-06-22T06:40:06;24.40;99.90
21035;DHT22;10676;50.848;3.272;2023-06-22T06:42:39;24.50;99.90
21035;DHT22;10676;50.848;3.272;2023-06-22T06:45:07;24.80;99.90
21035;DHT22;10676;50.848;3.272;2023-06-22T06:47:33;25.10;99.90
21035;DHT22;10676;50.848;3.272;2023-06-22T06:49:59;25.40;99.90
21035;DHT22;10676;50.848;3.272;2023-06-22T06:52:25;25.70;99.90
21035;DHT22;10676;50.848;3.272;2023-06-22T06:54:51;25.80;99.90
21035;DHT22;10676;50.848;3.272;2023-06-22T06:57:18;26.00;99.90
21035;DHT22;10676;50.848;3.272;2023-06-22T06:59:44;26.10;99.90
21035;DHT22;10676;50.848;3.272;2023-06-22T07:02:09;26.30;99.90
21035;DHT22;10676;50.848;3.272;2023-06-22T07:04:35;26.60;99.90
21035;DHT22;10676;50.848;3.272;2023-06-22T07:07:02;26.90;99.90
21035;DHT22;10676;50.848;3.272;2023-06-22T07:09:28;27.20;99.90
21035;DHT22;10676;50.848;3.272;2023-06-22T07:11:54;27.40;99.90
21035;DHT22;10676;50.848;3.272;2023-06-22T07:14:19;27.70;99.90
21035;DHT22;10676;50.848;3.272;2023-06-22T07:16:45;28.00;99.90
21035;DHT22;10676;50.848;3.272;2023-06-22T07:19:13;28.20;99.90
21035;DHT22;10676;50.848;3.272;2023-06-22T07:21:39;28.40;99.90
21035;DHT22;10676;50.848;3.272;2023-06-22T07:24:06;28.60;99.90
21035;DHT22;10676;50.848;3.272;2023-06-22T07:26:32;28.70;99.90
21035;DHT22;10676;50.848;3.272;2023-06-22T07:28:58;28.80;99.90
21035;DHT22;10676;50.848;3.272;2023-06-22T07:31:26;28.90;99.90
21035;DHT22;10676;50.848;3.272;2023-06-22T07:33:52;28.90;99.90
21035;DHT22;10676;50.848;3.272;2023-06-22T07:36:18;28.80;99.90
21035;DHT22;10676;50.848;3.272;2023-06-22T07:38:44;28.60;99.90
21035;DHT22;10676;50.848;3.272;2023-06-22T07:41:10;28.50;99.90
21035;DHT22;10676;50.848;3.272;2023-06-22T07:43:35;28.30;99.90
21035;DHT22;10676;50.848;3.272;2023-06-22T07:46:05;28.10;99.90
21035;DHT22;10676;50.848;3.272;2023-06-22T07:48:31;27.90;99.90
21035;DHT22;10676;50.848;3.272;2023-06-22T07:50:57;27.70;99.90
21035;DHT22;10676;50.848;3.272;2023-06-22T07:53:22;27.60;99.90
21035;DHT22;10676;50.848;3.272;2023-06-22T07:55:49;27.40;99.90
21035;DHT22;10676;50.848;3.272;2023-06-22T07:58:15;27.30;99.90
21035;DHT22;10676;50.848;3.272;2023-06-22T08:00:41;27.20;99.90
21035;DHT22;10676;50.848;3.272;2023-06-22T08:03:06;27.10;99.90
21035;DHT22;10676;50.848;3.272;2023-06-22T08:05:32;27.10;99.90
21035;DHT22;10676;50.848;3.272;2023-06-22T08:07:58;27.10;99.90
21035;DHT22;10676;50.848;3.272;2023-06-22T08:10:24;27.00;99.90
21035;DHT22;10676;50.848;3.272;2023-06-22T08:12:49;27.00;99.90
21035;DHT22;10676;50.848;3.272;2023-06-22T08:15:16;27.00;99.90
21035;DHT22;10676;50.848;3.272;2023-06-22T08:17:43;27.00;99.90
21035;DHT22;10676;50.848;3.272;2023-06-22T08:20:10;27.00;99.90
21035;DHT22;10676;50.848;3.272;2023-06-22T08:22:37;26.90;99.90
21035;DHT22;10676;50.848;3.272;2023-06-22T08:25:04;26.90;99.90
21035;DHT22;10676;50.848;3.272;2023-06-22T08:27:30;26.90;99.90
21035;DHT22;10676;50.848;3.272;2023-06-22T08:29:59;26.80;99.90
21035;DHT22;10676;50.848;3.272;2023-06-22T08:32:28;26.70;99.90
21035;DHT22;10676;50.848;3.272;2023-06-22T08:34:55;26.70;99.90
21035;DHT22;10676;50.848;3.272;2023-06-22T08:37:21;26.60;99.90
21035;DHT22;10676;50.848;3.272;2023-06-22T08:39:56;26.60;99.90
21035;DHT22;10676;50.848;3.272;2023-06-22T08:42:22;26.60;99.90
21035;DHT22;10676;50.848;3.272;2023-06-22T08:44:50;26.40;99.90
21035;DHT22;10676;50.848;3.272;2023-06-22T08:47:15;26.40;99.90
21035;DHT22;10676;50.848;3.272;2023-06-22T08:49:41;26.50;99.90
21035;DHT22;10676;50.848;3.272;2023-06-22T08:52:07;26.40;99.90
21035;DHT22;10676;50.848;3.272;2023-06-22T08:54:33;26.40;99.90
21035;DHT22;10676;50.848;3.272;2023-06-22T08:57:00;26.30;99.90
21035;DHT22;10676;50.848;3.272;2023-06-22T08:59:26;26.30;99.90
21035;DHT22;10676;50.848;3.272;2023-06-22T09:01:51;26.30;99.90
21035;DHT22;10676;50.848;3.272;2023-06-22T09:04:17;26.30;99.90
21035;DHT22;10676;50.848;3.272;2023-06-22T09:06:42;26.30;99.90
21035;DHT22;10676;50.848;3.272;2023-06-22T09:09:12;26.30;99.90
21035;DHT22;10676;50.848;3.272;2023-06-22T09:11:39;26.20;99.90
21035;DHT22;10676;50.848;3.272;2023-06-22T09:14:04;26.20;99.90
21035;DHT22;10676;50.848;3.272;2023-06-22T09:16:30;26.10;99.90
21035;DHT22;10676;50.848;3.272;2023-06-22T09:18:56;26.10;99.90
21035;DHT22;10676;50.848;3.272;2023-06-22T09:21:21;26.00;99.90
21035;DHT22;10676;50.848;3.272;2023-06-22T09:23:47;25.90;99.90
21035;DHT22;10676;50.848;3.272;2023-06-22T09:26:17;25.90;99.90
21035;DHT22;10676;50.848;3.272;2023-06-22T09:28:42;25.80;99.90
21035;DHT22;10676;50.848;3.272;2023-06-22T09:31:08;25.80;99.90
21035;DHT22;10676;50.848;3.272;2023-06-22T09:33:34;25.70;99.90
21035;DHT22;10676;50.848;3.272;2023-06-22T09:36:00;25.70;99.90
21035;DHT22;10676;50.848;3.272;2023-06-22T09:38:26;25.70;99.90
21035;DHT22;10676;50.848;3.272;2023-06-22T09:40:51;25.60;99.90
21035;DHT22;10676;50.848;3.272;2023-06-22T09:43:17;25.60;99.90
21035;DHT22;10676;50.848;3.272;2023-06-22T09:45:42;25.60;99.90
21035;DHT22;10676;50.848;3.272;2023-06-22T09:48:08;25.60;99.90
21035;DHT22;10676;50.848;3.272;2023-06-22T09:50:35;25.60;99.90
21035;DHT22;10676;50.848;3.272;2023-06-22T09:53:02;25.50;99.90
21035;DHT22;10676;50.848;3.272;2023-06-22T09:55:27;25.40;99.90
21035;DHT22;10676;50.848;3.272;2023-06-22T09:57:53;25.40;99.90
21035;DHT22;10676;50.848;3.272;2023-06-22T10:00:20;25.40;99.90
21035;DHT22;10676;50.848;3.272;2023-06-22T10:02:47;25.30;99.90
21035;DHT22;10676;50.848;3.272;2023-06-22T10:05:12;25.40;99.90
21035;DHT22;10676;50.848;3.272;2023-06-22T10:07:38;25.40;99.90
21035;DHT22;10676;50.848;3.272;2023-06-22T10:10:08;25.40;99.90
21035;DHT22;10676;50.848;3.272;2023-06-22T10:12:33;25.40;99.90
21035;DHT22;10676;50.848;3.272;2023-06-22T10:14:59;25.30;99.90
21035;DHT22;10676;50.848;3.272;2023-06-22T10:17:25;25.30;99.90
21035;DHT22;10676;50.848;3.272;2023-06-22T10:19:50;25.30;99.90
21035;DHT22;10676;50.848;3.272;2023-06-22T10:22:16;25.20;99.90
21035;DHT22;10676;50.848;3.272;2023-06-22T10:24:42;25.10;99.90
21035;DHT22;10676;50.848;3.272;2023-06-22T10:27:11;25.10;99.90
21035;DHT22;10676;50.848;3.272;2023-06-22T10:29:37;25.00;99.90
21035;DHT22;10676;50.848;3.272;2023-06-22T10:32:03;25.00;99.90
21035;DHT22;10676;50.848;3.272;2023-06-22T10:34:29;25.00;99.90
21035;DHT22;10676;50.848;3.272;2023-06-22T10:36:54;24.90;99.90
21035;DHT22;10676;50.848;3.272;2023-06-22T10:39:20;24.90;99.90
21035;DHT22;10676;50.848;3.272;2023-06-22T10:41:46;24.90;99.90
21035;DHT22;10676;50.848;3.272;2023-06-22T10:44:11;24.80;99.90
21035;DHT22;10676;50.848;3.272;2023-06-22T10:46:38;24.70;99.90
21035;DHT22;10676;50.848;3.272;2023-06-22T10:49:03;24.70;99.90
21035;DHT22;10676;50.848;3.272;2023-06-22T10:51:29;24.70;99.90
21035;DHT22;10676;50.848;3.272;2023-06-22T10:53:56;24.60;99.90
21035;DHT22;10676;50.848;3.272;2023-06-22T10:56:22;24.60;99.90
21035;DHT22;10676;50.848;3.272;2023-06-22T10:58:48;24.60;99.90
21035;DHT22;10676;50.848;3.272;2023-06-22T11:01:14;24.60;99.90
21035;DHT22;10676;50.848;3.272;2023-06-22T11:03:39;24.60;99.90
21035;DHT22;10676;50.848;3.272;2023-06-22T11:06:05;24.60;99.90
21035;DHT22;10676;50.848;3.272;2023-06-22T11:08:31;24.60;99.90
21035;DHT22;10676;50.848;3.272;2023-06-22T11:10:56;24.60;99.90
21035;DHT22;10676;50.848;3.272;2023-06-22T11:13:22;24.60;99.90
21035;DHT22;10676;50.848;3.272;2023-06-22T11:15:47;24.60;99.90
21035;DHT22;10676;50.848;3.272;2023-06-22T11:18:13;24.50;99.90
21035;DHT22;10676;50.848;3.272;2023-06-22T11:20:39;24.40;99.90
21035;DHT22;10676;50.848;3.272;2023-06-22T11:23:06;24.20;99.90
21035;DHT22;10676;50.848;3.272;2023-06-22T11:25:32;23.90;99.90
21035;DHT22;10676;50.848;3.272;2023-06-22T11:28:03;23.70;99.90
21035;DHT22;10676;50.848;3.272;2023-06-22T11:30:28;23.40;99.90
21035;DHT22;10676;50.848;3.272;2023-06-22T11:32:56;23.10;99.90
21035;DHT22;10676;50.848;3.272;2023-06-22T11:35:21;22.90;99.90
21035;DHT22;10676;50.848;3.272;2023-06-22T11:37:48;22.60;99.90
21035;DHT22;10676;50.848;3.272;2023-06-22T11:40:13;22.40;99.90
21035;DHT22;10676;50.848;3.272;2023-06-22T11:42:39;22.20;99.90
21035;DHT22;10676;50.848;3.272;2023-06-22T11:45:06;22.00;99.90
21035;DHT22;10676;50.848;3.272;2023-06-22T11:47:31;21.90;99.90
21035;DHT22;10676;50.848;3.272;2023-06-22T11:49:57;21.70;99.90
21035;DHT22;10676;50.848;3.272;2023-06-22T11:52:23;21.70;99.90
21035;DHT22;10676;50.848;3.272;2023-06-22T11:54:48;21.80;99.90
21035;DHT22;10676;50.848;3.272;2023-06-22T11:57:14;21.90;99.90
21035;DHT22;10676;50.848;3.272;2023-06-22T11:59:39;22.00;99.90
21035;DHT22;10676;50.848;3.272;2023-06-22T12:02:05;22.10;99.90
21035;DHT22;10676;50.848;3.272;2023-06-22T12:04:32;22.20;99.90
21035;DHT22;10676;50.848;3.272;2023-06-22T12:06:58;22.30;99.90
21035;DHT22;10676;50.848;3.272;2023-06-22T12:09:24;22.40;99.90
21035;DHT22;10676;50.848;3.272;2023-06-22T12:11:49;22.50;99.90
21035;DHT22;10676;50.848;3.272;2023-06-22T12:14:15;22.60;99.90
21035;DHT22;10676;50.848;3.272;2023-06-22T12:16:41;22.70;99.90
21035;DHT22;10676;50.848;3.272;2023-06-22T12:19:06;22.70;99.90
21035;DHT22;10676;50.848;3.272;2023-06-22T12:21:32;22.60;99.90
21035;DHT22;10676;50.848;3.272;2023-06-22T12:23:58;22.50;99.90
21035;DHT22;10676;50.848;3.272;2023-06-22T12:26:23;22.50;99.90
21035;DHT22;10676;50.848;3.272;2023-06-22T12:28:49;22.50;99.90
21035;DHT22;10676;50.848;3.272;2023-06-22T12:31:15;22.40;99.90
21035;DHT22;10676;50.848;3.272;2023-06-22T12:33:40;22.40;99.90
21035;DHT22;10676;50.848;3.272;2023-06-22T12:36:07;22.50;99.90
21035;DHT22;10676;50.848;3.272;2023-06-22T12:38:33;22.50;99.90
21035;DHT22;10676;50.848;3.272;2023-06-22T12:40:58;22.40;99.90
21035;DHT22;10676;50.848;3.272;2023-06-22T12:43:24;22.30;99.90
21035;DHT22;10676;50.848;3.272;2023-06-22T12:45:50;22.30;99.90
21035;DHT22;10676;50.848;3.272;2023-06-22T12:48:15;22.20;99.90
21035;DHT22;10676;50.848;3.272;2023-06-22T12:50:42;22.10;99.90
21035;DHT22;10676;50.848;3.272;2023-06-22T12:53:08;22.10;99.90
21035;DHT22;10676;50.848;3.272;2023-06-22T12:55:33;22.10;99.90
21035;DHT22;10676;50.848;3.272;2023-06-22T12:57:59;22.10;99.90
21035;DHT22;10676;50.848;3.272;2023-06-22T13:00:24;22.20;99.90
21035;DHT22;10676;50.848;3.272;2023-06-22T13:02:50;22.20;99.90
21035;DHT22;10676;50.848;3.272;2023-06-22T13:05:16;22.30;99.90
21035;DHT22;10676;50.848;3.272;2023-06-22T13:07:41;22.40;99.90
21035;DHT22;10676;50.848;3.272;2023-06-22T13:10:08;22.50;99.90
21035;DHT22;10676;50.848;3.272;2023-06-22T13:12:34;22.50;99.90
21035;DHT22;10676;50.848;3.272;2023-06-22T13:15:00;22.60;99.90
21035;DHT22;10676;50.848;3.272;2023-06-22T13:17:25;22.80;99.90
21035;DHT22;10676;50.848;3.272;2023-06-22T13:19:51;23.00;99.90
21035;DHT22;10676;50.848;3.272;2023-06-22T13:22:31;23.30;99.90
21035;DHT22;10676;50.848;3.272;2023-06-22T13:24:57;23.60;99.90
21035;DHT22;10676;50.848;3.272;2023-06-22T13:27:23;23.80;99.90
21035;DHT22;10676;50.848;3.272;2023-06-22T13:29:49;24.00;99.90
21035;DHT22;10676;50.848;3.272;2023-06-22T13:32:15;24.30;99.90
21035;DHT22;10676;50.848;3.272;2023-06-22T13:34:41;24.50;99.90
21035;DHT22;10676;50.848;3.272;2023-06-22T13:37:06;24.80;99.90
21035;DHT22;10676;50.848;3.272;2023-06-22T13:39:32;25.00;99.90
21035;DHT22;10676;50.848;3.272;2023-06-22T13:41:58;25.20;99.90
21035;DHT22;10676;50.848;3.272;2023-06-22T13:44:24;25.30;99.90
21035;DHT22;10676;50.848;3.272;2023-06-22T13:46:56;25.40;99.90
21035;DHT22;10676;50.848;3.272;2023-06-22T13:49:22;25.50;99.90
21035;DHT22;10676;50.848;3.272;2023-06-22T13:51:48;25.40;99.90
21035;DHT22;10676;50.848;3.272;2023-06-22T13:54:14;25.40;99.90
21035;DHT22;10676;50.848;3.272;2023-06-22T13:56:40;25.40;99.90
21035;DHT22;10676;50.848;3.272;2023-06-22T13:59:06;25.40;99.90
21035;DHT22;10676;50.848;3.272;2023-06-22T14:01:35;25.40;99.90
21035;DHT22;10676;50.848;3.272;2023-06-22T14:04:00;25.40;99.90
21035;DHT22;10676;50.848;3.272;2023-06-22T14:06:27;25.40;99.90
21035;DHT22;10676;50.848;3.272;2023-06-22T14:08:53;25.40;99.90
21035;DHT22;10676;50.848;3.272;2023-06-22T14:11:19;25.30;99.90
21035;DHT22;10676;50.848;3.272;2023-06-22T14:13:44;25.40;99.90
21035;DHT22;10676;50.848;3.272;2023-06-22T14:16:10;25.50;99.90
21035;DHT22;10676;50.848;3.272;2023-06-22T14:18:36;25.70;99.90
21035;DHT22;10676;50.848;3.272;2023-06-22T14:21:02;26.00;99.90
21035;DHT22;10676;50.848;3.272;2023-06-22T14:23:27;26.30;99.90
21035;DHT22;10676;50.848;3.272;2023-06-22T14:25:53;26.60;99.90
21035;DHT22;10676;50.848;3.272;2023-06-22T14:28:18;26.90;99.90
21035;DHT22;10676;50.848;3.272;2023-06-22T14:30:44;27.00;99.90
21035;DHT22;10676;50.848;3.272;2023-06-22T14:33:10;27.00;99.90
21035;DHT22;10676;50.848;3.272;2023-06-22T14:35:36;27.00;99.90
21035;DHT22;10676;50.848;3.272;2023-06-22T14:38:01;27.00;99.90
21035;DHT22;10676;50.848;3.272;2023-06-22T14:40:27;26.90;99.90
21035;DHT22;10676;50.848;3.272;2023-06-22T14:42:53;26.80;99.90
21035;DHT22;10676;50.848;3.272;2023-06-22T14:45:18;26.80;99.90
21035;DHT22;10676;50.848;3.272;2023-06-22T14:47:44;26.80;99.90
21035;DHT22;10676;50.848;3.272;2023-06-22T14:50:09;26.80;99.90
21035;DHT22;10676;50.848;3.272;2023-06-22T14:52:36;26.90;99.90
21035;DHT22;10676;50.848;3.272;2023-06-22T14:55:02;27.00;99.90
21035;DHT22;10676;50.848;3.272;2023-06-22T14:57:28;27.20;99.90
21035;DHT22;10676;50.848;3.272;2023-06-22T14:59:53;27.30;99.90
21035;DHT22;10676;50.848;3.272;2023-06-22T15:02:20;27.40;99.90
21035;DHT22;10676;50.848;3.272;2023-06-22T15:04:46;27.40;99.90
21035;DHT22;10676;50.848;3.272;2023-06-22T15:07:11;27.40;99.90
21035;DHT22;10676;50.848;3.272;2023-06-22T15:09:37;27.40;99.90
21035;DHT22;10676;50.848;3.272;2023-06-22T15:12:06;27.40;99.90
21035;DHT22;10676;50.848;3.272;2023-06-22T15:14:38;27.40;99.90
21035;DHT22;10676;50.848;3.272;2023-06-22T15:17:03;27.40;99.90
21035;DHT22;10676;50.848;3.272;2023-06-22T15:19:30;27.40;99.90
21035;DHT22;10676;50.848;3.272;2023-06-22T15:21:55;27.40;99.90
21035;DHT22;10676;50.848;3.272;2023-06-22T15:24:21;27.30;99.90
21035;DHT22;10676;50.848;3.272;2023-06-22T15:26:46;27.30;99.90
21035;DHT22;10676;50.848;3.272;2023-06-22T15:29:12;27.30;99.90
21035;DHT22;10676;50.848;3.272;2023-06-22T15:31:38;27.30;99.90